Accueil
METAR-TAF:

METAR-TAF

Aéroports :

Córdoba, Argentine

latitude: 31-19S, longitude: 064-13W, altitude: 484 m

Observation

Le bulletin a été fait il y a 1 heure et 2 minutes, à 15:00 UTC
Vent 11 kt de sud, variant entre sud/sud-est et sud/sud-ouest
Température 18°C
Humidité 20%
Pression 1025 hPa
Visibilité 10 km ou plus
pas de nuages en-dessous de 1500 mètres et pas de cumulonimbus.

METAR: SACO 211500Z 18011KT 150V210 CAVOK 18/M05 Q1025 NOSIG

Heure: 13:02 (16:02 UTC)

Prévision

Le bulletin a été fait il y a 5 heures et 2 minutes, à 11:00 UTC
Prévision valable du 21 à 12 UTC au 22 à 12 UTC
Vent 10 kt de sud/sud-ouest
Visibilité 10 km ou plus
Nuages épars à une hauteur de 3000 ft
Evoluant progressivement
du 22 à 06 UTC au 22 à 09 UTC
Vent 10 kt de nord
Nuages épars à une hauteur de 3000 ft
Nuages fragmentés à une hauteur de 6000 ft

TAF: SACO 211100Z 2112/2212 20010KT 9999 SCT030 TX19/2118Z TN02/2210Z BECMG 2206/2209 36010KT SCT030 BKN060

Observations et prévisions météorologiques de plus de 4000 aéroports (messages METAR et TAF).

Les stations disponibles sont représentées par des disques jaunes et rouges sur la carte.

Passer la souris dessus pour voir le nom de la station.

Cliquer dessus pour voir les observations et prévisions météorologiques.

Pour changer de carte: cliquez sur les boutons verts avec une croix noire pour zoomer, sur le bouton vert avec un tiret pour effectuer un zoom arrière, ou sur les flèches vertes pour les cartes adjacentes.


METAR-TAF: